Aviation Digital Data Service (ADDS)

Output produced by METARs form (1427 UTC 07 December 2016)
found at http://aviationweather.gov/adds/metars/
 
KFNT 071120Z 0712/0812 25010G18KT P6SM OVC035 
     FM080200 23010KT P6SM OVC025